createdAt,value
2022-11-09T00:01:28.929Z,81.03
2022-11-09T00:03:58.083Z,80.64
2022-11-09T00:06:27.315Z,80.86
2022-11-09T00:08:59.348Z,81.02
2022-11-09T00:11:29.640Z,81.06
2022-11-09T00:13:57.891Z,80.96
2022-11-09T00:16:26.081Z,80.88
2022-11-09T00:18:56.101Z,80.91
2022-11-09T00:21:26.042Z,80.83
2022-11-09T00:23:56.183Z,81.35
2022-11-09T00:26:25.141Z,81.17
2022-11-09T00:28:54.458Z,81.15
2022-11-09T00:31:24.639Z,80.84
2022-11-09T00:33:55.439Z,80.87
2022-11-09T00:36:25.781Z,80.60
2022-11-09T00:38:59.466Z,80.34
2022-11-09T00:41:28.914Z,80.46
2022-11-09T00:43:57.329Z,80.34
2022-11-09T00:46:26.085Z,80.55
2022-11-09T00:48:56.843Z,80.24
2022-11-09T00:51:25.831Z,80.43
2022-11-09T00:53:55.431Z,80.42
2022-11-09T00:56:26.044Z,80.31
2022-11-09T00:58:56.289Z,80.29
2022-11-09T01:01:24.681Z,80.27
2022-11-09T01:03:53.288Z,80.07
2022-11-09T01:06:24.883Z,80.07
2022-11-09T01:08:53.952Z,80.19
2022-11-09T01:11:23.506Z,80.03
2022-11-09T01:13:55.978Z,80.13
2022-11-09T01:16:25.607Z,80.34
2022-11-09T01:18:55.567Z,80.27
2022-11-09T01:21:27.197Z,80.36
2022-11-09T01:23:56.507Z,80.44
2022-11-09T01:26:25.111Z,80.82
2022-11-09T01:28:53.330Z,80.67
2022-11-09T01:31:23.954Z,80.39
2022-11-09T01:33:52.359Z,80.66
2022-11-09T01:36:24.391Z,80.93
2022-11-09T01:38:53.146Z,81.20
2022-11-09T01:41:24.731Z,81.27
2022-11-09T01:44:09.782Z,81.96
2022-11-09T01:46:50.162Z,82.19
2022-11-09T01:49:37.298Z,82.38
2022-11-09T01:52:12.457Z,82.40
2022-11-09T01:54:46.771Z,82.88
2022-11-09T01:57:21.317Z,82.72
2022-11-09T01:59:55.356Z,82.90
2022-11-09T02:02:25.837Z,82.71
2022-11-09T02:05:00.771Z,83.09
2022-11-09T02:07:29.848Z,83.23
2022-11-09T02:10:09.532Z,83.16
2022-11-09T02:12:38.298Z,83.39
2022-11-09T02:15:10.752Z,83.43
2022-11-09T02:17:42.111Z,83.33
2022-11-09T02:20:14.201Z,83.28
2022-11-09T02:22:43.064Z,83.39
2022-11-09T02:25:12.796Z,83.38
2022-11-09T02:27:42.594Z,83.70
2022-11-09T02:30:12.676Z,83.64
2022-11-09T02:32:41.297Z,83.70
2022-11-09T02:35:11.593Z,83.90
2022-11-09T02:37:43.793Z,83.81
2022-11-09T02:40:18.201Z,83.77
2022-11-09T02:42:46.685Z,83.56
2022-11-09T02:45:15.074Z,83.53
2022-11-09T02:47:43.997Z,83.58
2022-11-09T02:50:13.637Z,83.42
2022-11-09T02:52:42.905Z,83.71
2022-11-09T02:55:12.147Z,83.96
2022-11-09T02:57:41.452Z,83.51
2022-11-09T03:00:13.433Z,83.26
2022-11-09T03:02:42.884Z,83.41
2022-11-09T03:05:13.066Z,83.47
2022-11-09T03:07:44.512Z,83.01
2022-11-09T03:10:13.655Z,83.28
2022-11-09T03:12:42.778Z,83.15
2022-11-09T03:15:13.647Z,83.42
2022-11-09T03:17:45.935Z,83.33
2022-11-09T03:20:16.412Z,83.21
2022-11-09T03:22:44.770Z,83.10
2022-11-09T03:25:13.942Z,83.31
2022-11-09T03:27:42.337Z,83.26
2022-11-09T03:30:11.806Z,83.04
2022-11-09T03:32:40.506Z,82.98
2022-11-09T03:35:10.689Z,83.05
2022-11-09T03:37:40.485Z,83.43
2022-11-09T03:40:10.854Z,83.52
2022-11-09T03:42:45.717Z,83.63
2022-11-09T03:45:14.841Z,83.91
2022-11-09T03:47:43.235Z,83.75
2022-11-09T03:50:13.663Z,83.61
2022-11-09T03:52:46.525Z,83.77
2022-11-09T03:55:15.723Z,83.67
2022-11-09T03:57:46.073Z,83.59
2022-11-09T04:00:18.177Z,84.67
2022-11-09T04:02:46.913Z,85.35
2022-11-09T04:05:16.339Z,85.78
2022-11-09T04:07:50.788Z,86.15
2022-11-09T04:10:20.073Z,85.82
2022-11-09T04:12:48.704Z,86.37
2022-11-09T04:15:17.875Z,87.01
2022-11-09T04:17:46.150Z,86.74
2022-11-09T04:20:14.841Z,86.83
2022-11-09T04:22:43.170Z,86.69
2022-11-09T04:25:12.867Z,86.67
2022-11-09T04:27:41.186Z,87.11
2022-11-09T04:30:11.057Z,86.76
2022-11-09T04:32:39.546Z,86.72
2022-11-09T04:35:09.267Z,86.64
2022-11-09T04:37:37.602Z,86.86
2022-11-09T04:40:07.405Z,86.95
2022-11-09T04:42:37.044Z,87.26
2022-11-09T04:45:06.409Z,87.94
2022-11-09T04:47:34.701Z,88.38
2022-11-09T04:50:03.111Z,88.47
2022-11-09T04:52:31.497Z,88.67
2022-11-09T04:54:59.874Z,89.13
2022-11-09T04:57:28.124Z,89.69
2022-11-09T04:59:57.815Z,89.88
2022-11-09T05:02:26.118Z,89.71
2022-11-09T05:04:54.410Z,89.49
2022-11-09T05:07:22.627Z,89.78
2022-11-09T05:09:50.917Z,89.46
2022-11-09T05:12:19.293Z,88.87
2022-11-09T05:14:47.610Z,88.69
2022-11-09T05:17:17.338Z,88.71
2022-11-09T05:19:45.683Z,88.56
2022-11-09T05:22:31.715Z,88.14
2022-11-09T05:25:00.128Z,88.27
2022-11-09T05:27:28.410Z,88.33
2022-11-09T05:29:56.714Z,88.39
2022-11-09T05:32:26.340Z,88.57
2022-11-09T05:34:54.663Z,88.53
2022-11-09T05:37:23.576Z,88.53
2022-11-09T05:39:51.818Z,88.79
2022-11-09T05:42:20.155Z,88.63
2022-11-09T05:44:48.498Z,88.24
2022-11-09T05:47:16.794Z,88.19
2022-11-09T05:49:46.597Z,88.15
2022-11-09T05:52:15.233Z,88.26
2022-11-09T05:54:43.587Z,88.17
2022-11-09T05:57:11.937Z,87.85
2022-11-09T05:59:40.194Z,88.16
2022-11-09T06:02:08.579Z,88.26
2022-11-09T06:04:36.873Z,88.41
2022-11-09T06:07:06.663Z,88.66
2022-11-09T06:09:35.123Z,88.50
2022-11-09T06:12:03.446Z,88.67
2022-11-09T06:14:31.761Z,88.77
2022-11-09T06:17:00.794Z,88.88
2022-11-09T06:19:29.175Z,89.37
2022-11-09T06:21:57.457Z,89.58
2022-11-09T06:24:27.166Z,89.63
2022-11-09T06:26:55.460Z,89.29
2022-11-09T06:29:24.145Z,89.80
2022-11-09T06:31:52.478Z,89.52
2022-11-09T06:34:20.789Z,89.76
2022-11-09T06:36:49.118Z,90.00
2022-11-09T06:39:17.550Z,89.97
2022-11-09T06:41:47.839Z,90.35
2022-11-09T06:44:16.319Z,90.30
2022-11-09T06:46:44.593Z,90.41
2022-11-09T06:49:12.927Z,90.19
2022-11-09T06:51:41.289Z,90.41
2022-11-09T06:54:09.761Z,90.87
2022-11-09T06:56:38.122Z,91.29
2022-11-09T06:59:08.854Z,91.01
2022-11-09T07:01:37.549Z,91.30
2022-11-09T07:04:05.928Z,91.45
2022-11-09T07:06:34.257Z,91.44
2022-11-09T07:09:02.615Z,91.42
2022-11-09T07:11:30.857Z,91.25
2022-11-09T07:13:59.167Z,91.12
2022-11-09T07:16:29.050Z,91.41
2022-11-09T07:18:57.466Z,91.55
2022-11-09T07:21:26.146Z,91.85
2022-11-09T07:23:54.510Z,91.86
2022-11-09T07:26:22.705Z,91.74
2022-11-09T07:28:51.080Z,91.58
2022-11-09T07:31:19.613Z,91.46
2022-11-09T07:33:51.140Z,91.35
2022-11-09T07:36:21.632Z,90.80
2022-11-09T07:38:50.001Z,90.49
2022-11-09T07:41:18.286Z,90.27
2022-11-09T07:43:46.590Z,90.09
2022-11-09T07:46:15.028Z,90.31
2022-11-09T07:48:43.590Z,90.28
2022-11-09T07:51:13.429Z,89.93
2022-11-09T07:53:41.862Z,90.27
2022-11-09T07:56:10.561Z,89.85
2022-11-09T07:58:38.928Z,89.34
2022-11-09T08:01:11.300Z,89.05
2022-11-09T08:03:39.616Z,88.51
2022-11-09T08:06:08.122Z,88.33
2022-11-09T08:08:37.862Z,88.10
2022-11-09T08:11:06.550Z,88.47
2022-11-09T08:13:34.796Z,87.85
2022-11-09T08:16:04.710Z,87.88
2022-11-09T08:18:33.051Z,87.65
2022-11-09T08:21:04.196Z,87.96
2022-11-09T08:23:32.907Z,87.22
2022-11-09T08:26:06.301Z,87.20
2022-11-09T08:28:35.914Z,87.62
2022-11-09T08:31:09.019Z,87.19
2022-11-09T08:33:40.590Z,86.90
2022-11-09T08:36:14.372Z,87.03
2022-11-09T08:38:43.780Z,87.49
2022-11-09T08:41:14.645Z,87.57
2022-11-09T08:43:43.176Z,87.72
2022-11-09T08:46:11.525Z,88.11
2022-11-09T08:48:39.876Z,87.93
2022-11-09T08:51:08.462Z,87.84
2022-11-09T08:53:36.888Z,87.32
2022-11-09T08:56:07.818Z,87.56
2022-11-09T08:58:37.780Z,87.06
2022-11-09T09:01:15.397Z,87.04
2022-11-09T09:03:45.536Z,87.33
2022-11-09T09:06:13.923Z,87.46
2022-11-09T09:08:42.352Z,87.43
2022-11-09T09:11:10.632Z,87.40
2022-11-09T09:13:43.347Z,87.12
2022-11-09T09:16:14.439Z,87.62
2022-11-09T09:18:42.928Z,87.33
2022-11-09T09:21:12.386Z,86.88
2022-11-09T09:23:41.189Z,87.21
2022-11-09T09:26:09.587Z,87.25
2022-11-09T09:28:39.279Z,86.92
2022-11-09T09:31:07.922Z,86.83
2022-11-09T09:33:36.914Z,86.20
2022-11-09T09:36:05.913Z,86.04
2022-11-09T09:38:34.241Z,85.93
2022-11-09T09:41:04.550Z,85.78
2022-11-09T09:43:42.718Z,85.18
2022-11-09T09:46:21.351Z,84.68
2022-11-09T09:48:54.964Z,84.34
2022-11-09T09:51:31.058Z,84.25
2022-11-09T09:54:06.693Z,84.49
2022-11-09T09:56:40.452Z,84.39
2022-11-09T09:59:16.470Z,85.10
2022-11-09T10:01:47.113Z,84.67
2022-11-09T10:04:20.421Z,85.20
2022-11-09T10:07:04.538Z,85.54
2022-11-09T10:09:54.563Z,86.50
2022-11-09T10:12:34.519Z,86.86
2022-11-09T10:15:14.769Z,86.80
2022-11-09T10:17:58.366Z,86.95
2022-11-09T10:20:41.749Z,86.87
2022-11-09T10:23:35.729Z,87.51
2022-11-09T10:26:10.031Z,87.03
2022-11-09T10:29:13.767Z,87.27
2022-11-09T10:31:41.360Z,86.43
2022-11-09T10:34:20.194Z,85.72
2022-11-09T10:36:59.859Z,85.29
2022-11-09T10:39:37.089Z,85.84
2022-11-09T10:42:24.236Z,84.17
2022-11-09T10:45:22.329Z,83.79
2022-11-09T10:48:13.286Z,83.40
2022-11-09T10:51:01.391Z,82.28
2022-11-09T10:53:48.387Z,82.26
2022-11-09T10:57:05.614Z,82.16
2022-11-09T10:59:57.524Z,82.31
2022-11-09T11:02:50.110Z,82.68
2022-11-09T11:05:37.439Z,82.66
2022-11-09T11:08:32.064Z,82.30
2022-11-09T11:11:36.137Z,81.78
2022-11-09T11:14:31.764Z,82.03
2022-11-09T11:17:24.821Z,81.91
2022-11-09T11:20:31.455Z,81.38
2022-11-09T11:23:21.868Z,81.45
2022-11-09T11:26:36.280Z,81.42
2022-11-09T11:29:40.527Z,81.84
2022-11-09T11:32:28.049Z,82.50
2022-11-09T11:35:23.688Z,80.90
2022-11-09T11:38:23.261Z,81.10
2022-11-09T11:41:39.370Z,79.99
2022-11-09T11:44:45.209Z,78.69
2022-11-09T11:47:48.717Z,79.00
2022-11-09T11:50:42.463Z,78.48
2022-11-09T11:53:47.169Z,78.41
2022-11-09T11:56:43.213Z,78.44
2022-11-09T12:00:04.402Z,78.69
2022-11-09T12:03:48.141Z,79.05
2022-11-09T12:06:55.112Z,78.38
2022-11-09T12:10:00.985Z,77.24
2022-11-09T12:13:04.724Z,77.83
2022-11-09T12:16:00.935Z,76.83
2022-11-09T12:19:15.460Z,75.38
2022-11-09T12:22:10.429Z,74.57
2022-11-09T12:25:04.563Z,74.71
2022-11-09T12:28:12.827Z,74.67
2022-11-09T12:31:11.832Z,74.46
2022-11-09T12:34:05.122Z,75.00
2022-11-09T12:36:57.210Z,73.78
2022-11-09T12:39:48.720Z,73.26
2022-11-09T12:42:44.387Z,73.27
2022-11-09T12:45:35.981Z,74.39
2022-11-09T12:48:26.817Z,74.03
2022-11-09T12:51:13.700Z,74.14
2022-11-09T12:54:09.972Z,75.08
2022-11-09T12:57:00.456Z,75.28
2022-11-09T12:59:50.292Z,74.29
2022-11-09T13:02:57.298Z,74.50
2022-11-09T13:05:45.795Z,74.58
2022-11-09T13:08:33.355Z,74.84
2022-11-09T13:11:23.158Z,75.50
2022-11-09T13:14:39.073Z,74.62
2022-11-09T13:18:05.088Z,73.43
2022-11-09T13:20:56.011Z,73.93
2022-11-09T13:24:03.637Z,73.64
2022-11-09T13:26:59.516Z,73.85
2022-11-09T13:29:56.300Z,74.21
2022-11-09T13:33:24.963Z,73.95
2022-11-09T13:36:21.082Z,73.70
2022-11-09T13:39:33.205Z,73.73
2022-11-09T13:42:31.223Z,73.81
2022-11-09T13:45:35.254Z,74.54
2022-11-09T13:48:46.104Z,74.80
2022-11-09T13:51:46.068Z,75.93
2022-11-09T13:54:35.036Z,77.06
2022-11-09T13:57:23.929Z,77.56
2022-11-09T14:00:19.688Z,77.86
2022-11-09T14:03:20.941Z,78.24
2022-11-09T14:06:14.427Z,78.32
2022-11-09T14:09:02.490Z,77.90
2022-11-09T14:12:06.265Z,78.44
2022-11-09T14:15:18.628Z,78.54
2022-11-09T14:18:23.389Z,78.23
2022-11-09T14:21:33.015Z,77.65
2022-11-09T14:24:22.114Z,76.92
2022-11-09T14:27:20.073Z,76.58
2022-11-09T14:30:19.099Z,76.56
2022-11-09T14:33:23.552Z,75.96
2022-11-09T14:36:15.718Z,75.19
2022-11-09T14:39:05.139Z,75.02
2022-11-09T14:41:52.727Z,75.20
2022-11-09T14:44:45.416Z,75.29
2022-11-09T14:47:35.164Z,75.29
2022-11-09T14:50:25.600Z,74.80
2022-11-09T14:53:22.354Z,74.90
2022-11-09T14:56:14.857Z,74.31
2022-11-09T14:59:05.785Z,74.64
2022-11-09T15:02:03.422Z,74.63
2022-11-09T15:04:58.197Z,74.85
2022-11-09T15:07:48.022Z,75.09
2022-11-09T15:10:36.805Z,75.38
2022-11-09T15:13:33.310Z,75.63
2022-11-09T15:16:23.554Z,75.49
2022-11-09T15:19:29.557Z,75.95
2022-11-09T15:22:50.692Z,75.83
2022-11-09T15:25:55.763Z,75.76
2022-11-09T15:28:48.007Z,76.14
2022-11-09T15:31:35.733Z,76.12
2022-11-09T15:34:27.276Z,76.33
2022-11-09T15:37:25.659Z,76.26
2022-11-09T15:40:15.668Z,76.22
2022-11-09T15:43:03.813Z,76.09
2022-11-09T15:45:50.730Z,75.98
2022-11-09T15:48:41.004Z,76.10
2022-11-09T15:51:31.809Z,76.22
2022-11-09T15:54:19.008Z,76.27
2022-11-09T15:57:06.174Z,76.54
2022-11-09T15:59:54.683Z,76.80
2022-11-09T16:02:42.187Z,76.71
2022-11-09T16:05:29.277Z,76.85
2022-11-09T16:08:16.244Z,77.07
2022-11-09T16:11:05.871Z,76.70
2022-11-09T16:13:52.781Z,76.73
2022-11-09T16:16:41.155Z,76.51
2022-11-09T16:19:27.928Z,76.08
2022-11-09T16:22:14.949Z,76.24
2022-11-09T16:25:01.988Z,76.32
2022-11-09T16:27:50.646Z,76.66
2022-11-09T16:30:41.617Z,76.75
2022-11-09T16:33:33.750Z,77.26
2022-11-09T16:36:24.452Z,77.26
2022-11-09T16:39:16.920Z,77.17
2022-11-09T16:42:08.375Z,77.04
2022-11-09T16:44:59.877Z,76.90
2022-11-09T16:47:51.088Z,76.69
2022-11-09T16:50:39.185Z,76.42
2022-11-09T16:53:27.246Z,76.19
2022-11-09T16:56:14.909Z,76.35
2022-11-09T16:59:01.701Z,76.95
2022-11-09T17:01:52.905Z,76.99
2022-11-09T17:04:40.096Z,77.20
2022-11-09T17:07:29.163Z,77.38
2022-11-09T17:10:16.700Z,77.14
2022-11-09T17:13:03.418Z,77.12
2022-11-09T17:15:53.368Z,77.13
2022-11-09T17:18:42.749Z,77.02
2022-11-09T17:21:30.822Z,76.85
2022-11-09T17:24:19.282Z,76.88
2022-11-09T17:27:06.472Z,77.04
2022-11-09T17:29:53.662Z,76.98
2022-11-09T17:32:41.880Z,77.18
2022-11-09T17:35:29.298Z,77.04
2022-11-09T17:38:16.363Z,77.05
2022-11-09T17:41:07.105Z,77.13
2022-11-09T17:43:54.340Z,76.87
2022-11-09T17:46:41.484Z,76.84
2022-11-09T17:49:28.388Z,77.14
2022-11-09T17:52:15.112Z,77.18
2022-11-09T17:55:01.829Z,76.96
2022-11-09T17:57:50.211Z,77.06
2022-11-09T18:00:36.930Z,76.80
2022-11-09T18:03:25.690Z,76.46
2022-11-09T18:06:14.721Z,76.36
2022-11-09T18:09:39.101Z,76.10
2022-11-09T18:12:08.899Z,76.00
2022-11-09T18:14:57.499Z,75.95
2022-11-09T18:17:44.226Z,76.00
2022-11-09T18:20:31.163Z,76.26
2022-11-09T18:23:18.170Z,76.75
2022-11-09T18:26:07.859Z,77.45
2022-11-09T18:28:57.046Z,77.70
2022-11-09T18:31:45.383Z,78.36
2022-11-09T18:34:32.669Z,78.05
2022-11-09T18:37:19.868Z,77.75
2022-11-09T18:40:08.593Z,78.02
2022-11-09T18:42:55.361Z,77.99
2022-11-09T18:45:42.105Z,77.86
2022-11-09T18:48:31.535Z,77.88
2022-11-09T18:51:19.008Z,77.94
2022-11-09T18:54:05.793Z,77.79
2022-11-09T18:56:53.075Z,77.83
2022-11-09T18:59:40.882Z,78.22
2022-11-09T19:02:27.686Z,78.52
2022-11-09T19:05:16.275Z,78.61
2022-11-09T19:08:03.170Z,78.46
2022-11-09T19:10:49.846Z,78.77
2022-11-09T19:13:37.118Z,78.75
2022-11-09T19:16:26.110Z,79.15
2022-11-09T19:19:15.220Z,79.52
2022-11-09T19:22:03.753Z,79.82
2022-11-09T19:24:50.701Z,80.51
2022-11-09T19:27:37.761Z,81.13
2022-11-09T19:30:25.997Z,81.84
2022-11-09T19:33:12.813Z,82.35
2022-11-09T19:36:27.991Z,82.97
2022-11-09T19:39:07.683Z,83.35
2022-11-09T19:41:54.389Z,83.68
2022-11-09T19:44:41.388Z,84.05
2022-11-09T19:47:28.324Z,84.22
2022-11-09T19:50:15.194Z,84.43
2022-11-09T19:53:02.074Z,84.61
2022-11-09T19:55:50.579Z,84.23
2022-11-09T19:58:37.676Z,84.57
2022-11-09T20:01:25.151Z,84.68
2022-11-09T20:04:12.487Z,84.86
2022-11-09T20:06:59.416Z,84.86
2022-11-09T20:09:46.398Z,84.80
2022-11-09T20:12:54.666Z,84.68
2022-11-09T20:15:41.574Z,84.58
2022-11-09T20:18:28.510Z,84.45
2022-11-09T20:21:15.516Z,84.56
2022-11-09T20:24:02.483Z,84.67
2022-11-09T20:26:49.429Z,84.88
2022-11-09T20:29:37.895Z,84.66
2022-11-09T20:32:25.435Z,84.54
2022-11-09T20:35:12.506Z,84.43
2022-11-09T20:37:59.484Z,84.27
2022-11-09T20:40:54.521Z,84.50
2022-11-09T20:43:41.764Z,84.29
2022-11-09T20:46:35.793Z,84.33
2022-11-09T20:49:23.556Z,84.35
2022-11-09T20:52:10.622Z,84.40
2022-11-09T20:54:57.588Z,84.67
2022-11-09T20:57:44.692Z,84.97
2022-11-09T21:00:32.119Z,85.00
2022-11-09T21:03:21.448Z,84.79
2022-11-09T21:06:10.322Z,84.85
2022-11-09T21:08:58.212Z,84.85
2022-11-09T21:11:58.703Z,85.08
2022-11-09T21:14:45.514Z,84.77
2022-11-09T21:17:32.738Z,85.25
2022-11-09T21:20:20.840Z,84.97
2022-11-09T21:23:25.166Z,85.07
2022-11-09T21:26:43.961Z,85.59
2022-11-09T21:29:48.308Z,86.25
2022-11-09T21:32:35.320Z,86.22
2022-11-09T21:35:23.434Z,85.42
2022-11-09T21:38:10.471Z,83.75
2022-11-09T21:41:06.835Z,82.93
2022-11-09T21:43:55.244Z,82.10
2022-11-09T21:46:44.207Z,82.82
2022-11-09T21:49:31.593Z,83.82
2022-11-09T21:52:20.939Z,84.30
2022-11-09T21:55:09.078Z,84.77
2022-11-09T21:57:56.164Z,85.52
2022-11-09T22:00:43.091Z,85.87
2022-11-09T22:03:29.939Z,85.94
2022-11-09T22:06:17.537Z,86.05
2022-11-09T22:09:07.210Z,86.00
2022-11-09T22:12:11.510Z,85.80
2022-11-09T22:15:16.034Z,85.64
2022-11-09T22:18:02.905Z,85.42
2022-11-09T22:20:54.696Z,85.39
2022-11-09T22:23:41.575Z,85.69
2022-11-09T22:26:31.769Z,85.43
2022-11-09T22:29:18.684Z,85.43
2022-11-09T22:32:06.097Z,85.73
2022-11-09T22:34:53.118Z,85.79
2022-11-09T22:37:40.157Z,86.09
2022-11-09T22:40:27.162Z,85.79
2022-11-09T22:43:15.238Z,85.68
2022-11-09T22:46:05.059Z,85.73
2022-11-09T22:48:51.959Z,85.65
2022-11-09T22:51:38.784Z,85.07
2022-11-09T22:54:26.023Z,85.23
2022-11-09T22:57:12.758Z,85.30
2022-11-09T23:00:01.050Z,85.50
2022-11-09T23:02:50.561Z,85.77
2022-11-09T23:05:37.404Z,85.96
2022-11-09T23:08:24.749Z,86.32
2022-11-09T23:11:16.566Z,86.53
2022-11-09T23:14:03.372Z,86.93
2022-11-09T23:16:51.797Z,86.99
2022-11-09T23:19:37.507Z,86.88
2022-11-09T23:22:24.343Z,86.92
2022-11-09T23:25:29.772Z,86.87
2022-11-09T23:28:16.926Z,86.92
2022-11-09T23:31:07.362Z,86.75
2022-11-09T23:33:57.679Z,87.06
2022-11-09T23:36:44.312Z,87.11
2022-11-09T23:39:30.941Z,86.84
2022-11-09T23:42:17.462Z,86.62
2022-11-09T23:45:04.686Z,86.84
2022-11-09T23:47:51.293Z,86.86
2022-11-09T23:50:39.599Z,86.81
2022-11-09T23:53:27.277Z,87.00
2022-11-09T23:56:14.290Z,87.38
2022-11-09T23:59:01.115Z,86.95
